createdAt,value
2017-12-24T00:00:06.483Z,9.35
2017-12-24T00:02:34.236Z,9.34
2017-12-24T00:05:01.972Z,9.35
2017-12-24T00:07:29.672Z,9.33
2017-12-24T00:09:57.410Z,9.33
2017-12-24T00:12:25.116Z,9.30
2017-12-24T00:14:52.837Z,9.35
2017-12-24T00:17:20.558Z,9.31
2017-12-24T00:19:48.386Z,9.26
2017-12-24T00:22:16.076Z,9.25
2017-12-24T00:24:43.803Z,9.31
2017-12-24T00:27:11.427Z,9.33
2017-12-24T00:29:39.159Z,9.29
2017-12-24T00:32:06.847Z,9.30
2017-12-24T00:34:34.524Z,9.34
2017-12-24T00:37:02.239Z,9.41
2017-12-24T00:39:29.972Z,9.40
2017-12-24T00:41:57.651Z,9.38
2017-12-24T00:44:25.383Z,9.38
2017-12-24T00:46:53.082Z,9.40
2017-12-24T00:49:20.806Z,9.33
2017-12-24T00:51:48.498Z,9.35
2017-12-24T00:54:16.164Z,9.40
2017-12-24T00:56:43.864Z,9.41
2017-12-24T00:59:11.527Z,9.40
2017-12-24T01:01:39.212Z,9.42
2017-12-24T01:04:06.992Z,9.43
2017-12-24T01:06:34.684Z,9.41
2017-12-24T01:09:02.459Z,9.39
2017-12-24T01:11:30.092Z,9.40
2017-12-24T01:13:57.824Z,9.39
2017-12-24T01:16:25.512Z,9.40
2017-12-24T01:18:53.184Z,9.43
2017-12-24T01:21:20.870Z,9.45
2017-12-24T01:23:48.600Z,9.47
2017-12-24T01:26:16.279Z,9.47
2017-12-24T01:28:44.027Z,9.46
2017-12-24T01:31:11.694Z,9.47
2017-12-24T01:33:39.460Z,9.52
2017-12-24T01:36:07.149Z,9.49
2017-12-24T01:38:34.832Z,9.49
2017-12-24T01:41:02.560Z,9.50
2017-12-24T01:43:30.256Z,9.53
2017-12-24T01:45:57.995Z,9.55
2017-12-24T01:48:25.632Z,9.56
2017-12-24T01:50:53.358Z,9.57
2017-12-24T01:53:21.062Z,9.57
2017-12-24T01:55:48.814Z,9.55
2017-12-24T01:58:16.514Z,9.55
2017-12-24T02:00:44.251Z,9.52
2017-12-24T02:03:12.000Z,9.48
2017-12-24T02:05:39.724Z,9.44
2017-12-24T02:08:07.405Z,9.40
2017-12-24T02:10:35.135Z,9.34
2017-12-24T02:13:02.765Z,9.28
2017-12-24T02:15:30.489Z,9.24
2017-12-24T02:17:58.138Z,9.21
2017-12-24T02:20:25.868Z,9.22
2017-12-24T02:22:53.552Z,9.17
2017-12-24T02:25:21.287Z,9.18
2017-12-24T02:27:48.983Z,9.16
2017-12-24T02:30:16.704Z,9.16
2017-12-24T02:32:44.406Z,9.16
2017-12-24T02:35:12.072Z,9.17
2017-12-24T02:37:39.774Z,9.17
2017-12-24T02:40:07.500Z,9.13
2017-12-24T02:42:35.119Z,9.14
2017-12-24T02:45:02.856Z,9.12
2017-12-24T02:47:30.532Z,9.10
2017-12-24T02:49:58.251Z,9.06
2017-12-24T02:52:25.985Z,9.05
2017-12-24T02:54:53.706Z,9.09
2017-12-24T02:57:21.344Z,9.08
2017-12-24T02:59:49.076Z,9.09
2017-12-24T03:02:16.835Z,9.09
2017-12-24T03:04:44.568Z,9.03
2017-12-24T03:07:12.255Z,9.03
2017-12-24T03:09:39.995Z,9.04
2017-12-24T03:12:07.693Z,9.03
2017-12-24T03:14:35.381Z,9.03
2017-12-24T03:17:03.031Z,9.03
2017-12-24T03:19:30.715Z,9.01
2017-12-24T03:21:58.451Z,8.99
2017-12-24T03:24:26.135Z,9.01
2017-12-24T03:26:53.866Z,9.00
2017-12-24T03:29:21.558Z,9.01
2017-12-24T03:31:49.232Z,8.99
2017-12-24T03:34:16.914Z,9.00
2017-12-24T03:36:44.635Z,9.00
2017-12-24T03:39:12.315Z,9.00
2017-12-24T03:41:40.029Z,9.00
2017-12-24T03:44:07.711Z,9.02
2017-12-24T03:46:35.386Z,9.03
2017-12-24T03:49:03.073Z,9.00
2017-12-24T03:51:30.739Z,8.96
2017-12-24T03:53:58.433Z,8.98
2017-12-24T03:56:26.170Z,8.94
2017-12-24T03:58:53.898Z,8.95
2017-12-24T04:01:21.667Z,8.92
2017-12-24T04:03:49.440Z,8.96
2017-12-24T04:06:17.168Z,8.98
2017-12-24T04:08:44.834Z,8.95
2017-12-24T04:11:12.572Z,8.89
2017-12-24T04:13:40.254Z,8.89
2017-12-24T04:16:07.979Z,8.90
2017-12-24T04:18:35.644Z,8.97
2017-12-24T04:21:03.361Z,8.93
2017-12-24T04:23:31.040Z,8.90
2017-12-24T04:25:58.759Z,8.88
2017-12-24T04:28:26.439Z,8.94
2017-12-24T04:30:54.165Z,8.90
2017-12-24T04:33:21.847Z,8.92
2017-12-24T04:35:49.596Z,8.91
2017-12-24T04:38:17.276Z,8.89
2017-12-24T04:40:45.005Z,8.93
2017-12-24T04:43:12.700Z,8.92
2017-12-24T04:45:40.434Z,8.91
2017-12-24T04:48:08.120Z,8.90
2017-12-24T04:50:35.844Z,8.88
2017-12-24T04:53:03.470Z,8.89
2017-12-24T04:55:31.210Z,8.94
2017-12-24T04:57:58.894Z,8.90
2017-12-24T05:00:26.589Z,8.87
2017-12-24T05:02:54.354Z,8.87
2017-12-24T05:05:22.024Z,8.86
2017-12-24T05:07:49.697Z,8.87
2017-12-24T05:10:17.371Z,8.91
2017-12-24T05:12:45.036Z,8.90
2017-12-24T05:15:12.727Z,8.88
2017-12-24T05:17:40.453Z,8.91
2017-12-24T05:20:08.133Z,8.86
2017-12-24T05:22:35.861Z,8.85
2017-12-24T05:25:03.549Z,8.87
2017-12-24T05:27:31.227Z,8.90
2017-12-24T05:29:58.908Z,8.86
2017-12-24T05:32:26.578Z,8.86
2017-12-24T05:34:55.273Z,8.87
2017-12-24T05:37:22.997Z,8.87
2017-12-24T05:39:50.676Z,8.88
2017-12-24T05:42:18.413Z,8.88
2017-12-24T05:44:46.098Z,8.94
2017-12-24T05:47:13.834Z,8.95
2017-12-24T05:49:41.519Z,8.95
2017-12-24T05:52:09.264Z,8.95
2017-12-24T05:54:36.967Z,8.97
2017-12-24T05:57:04.704Z,8.97
2017-12-24T05:59:32.396Z,8.96
2017-12-24T06:02:00.202Z,8.98
2017-12-24T06:04:27.889Z,8.96
2017-12-24T06:06:55.617Z,9.01
2017-12-24T06:09:23.235Z,9.01
2017-12-24T06:11:50.892Z,8.98
2017-12-24T06:14:18.558Z,8.97
2017-12-24T06:16:46.289Z,9.00
2017-12-24T06:19:13.903Z,9.00
2017-12-24T06:21:41.629Z,8.98
2017-12-24T06:24:09.310Z,8.98
2017-12-24T06:26:37.035Z,9.00
2017-12-24T06:29:04.713Z,8.98
2017-12-24T06:31:32.375Z,8.98
2017-12-24T06:34:00.058Z,9.00
2017-12-24T06:36:27.803Z,8.98
2017-12-24T06:38:55.412Z,8.97
2017-12-24T06:41:23.152Z,8.92
2017-12-24T06:43:50.886Z,8.95
2017-12-24T06:46:18.560Z,8.98
2017-12-24T06:48:46.229Z,8.97
2017-12-24T06:51:13.900Z,8.97
2017-12-24T06:53:41.631Z,8.94
2017-12-24T06:56:09.308Z,8.96
2017-12-24T06:58:37.049Z,8.97
2017-12-24T07:01:04.729Z,8.97
2017-12-24T07:03:32.493Z,8.96
2017-12-24T07:06:00.173Z,8.94
2017-12-24T07:08:27.899Z,8.93
2017-12-24T07:10:55.587Z,8.91
2017-12-24T07:13:23.319Z,8.92
2017-12-24T07:15:50.940Z,8.92
2017-12-24T07:18:18.693Z,8.92
2017-12-24T07:20:46.331Z,8.92
2017-12-24T07:23:14.007Z,8.90
2017-12-24T07:25:41.636Z,8.90
2017-12-24T07:28:09.301Z,8.91
2017-12-24T07:30:36.932Z,8.88
2017-12-24T07:33:04.598Z,8.91
2017-12-24T07:35:32.205Z,8.88
2017-12-24T07:37:59.878Z,8.91
2017-12-24T07:40:27.512Z,8.98
2017-12-24T07:42:55.249Z,8.99
2017-12-24T07:45:22.933Z,9.00
2017-12-24T07:47:50.676Z,8.96
2017-12-24T07:50:19.268Z,8.91
2017-12-24T07:52:46.943Z,8.94
2017-12-24T07:55:14.565Z,8.93
2017-12-24T07:57:42.283Z,8.91
2017-12-24T08:00:09.901Z,8.92
2017-12-24T08:02:37.559Z,8.88
2017-12-24T08:05:05.183Z,8.95
2017-12-24T08:07:32.866Z,8.88
2017-12-24T08:10:00.484Z,8.90
2017-12-24T08:12:36.347Z,8.87
2017-12-24T08:15:07.200Z,8.85
2017-12-24T08:17:34.951Z,8.90
2017-12-24T08:20:02.661Z,8.86
2017-12-24T08:22:30.415Z,8.85
2017-12-24T08:24:58.040Z,8.88
2017-12-24T08:27:25.665Z,8.87
2017-12-24T08:29:53.423Z,8.88
2017-12-24T08:32:21.116Z,8.90
2017-12-24T08:34:48.809Z,8.90
2017-12-24T08:37:16.424Z,8.86
2017-12-24T08:39:44.195Z,8.85
2017-12-24T08:42:11.816Z,8.85
2017-12-24T08:44:39.491Z,8.83
2017-12-24T08:47:07.114Z,8.82
2017-12-24T08:49:34.854Z,8.83
2017-12-24T08:52:02.476Z,8.79
2017-12-24T08:54:30.200Z,8.79
2017-12-24T08:56:57.824Z,8.77
2017-12-24T08:59:25.563Z,8.78
2017-12-24T09:01:53.250Z,8.78
2017-12-24T09:04:21.027Z,8.79
2017-12-24T09:06:48.656Z,8.80
2017-12-24T09:09:16.323Z,8.78
2017-12-24T09:11:43.955Z,8.77
2017-12-24T09:14:11.693Z,8.75
2017-12-24T09:16:39.388Z,8.74
2017-12-24T09:19:07.131Z,8.74
2017-12-24T09:21:34.836Z,8.72
2017-12-24T09:24:02.555Z,8.77
2017-12-24T09:26:30.238Z,8.77
2017-12-24T09:28:57.988Z,8.80
2017-12-24T09:31:25.624Z,8.83
2017-12-24T09:33:53.302Z,8.84
2017-12-24T09:36:20.945Z,8.84
2017-12-24T09:38:48.626Z,8.87
2017-12-24T09:41:16.307Z,8.85
2017-12-24T09:43:44.020Z,8.85
2017-12-24T09:46:11.642Z,8.92
2017-12-24T09:48:39.394Z,8.93
2017-12-24T09:51:07.088Z,8.92
2017-12-24T09:53:34.756Z,8.91
2017-12-24T09:56:02.373Z,9.01
2017-12-24T09:58:30.048Z,8.93
2017-12-24T10:00:57.881Z,8.84
2017-12-24T10:03:25.660Z,8.79
2017-12-24T10:05:53.443Z,8.80
2017-12-24T10:08:21.064Z,8.82
2017-12-24T10:10:48.796Z,8.86
2017-12-24T10:13:16.431Z,8.89
2017-12-24T10:15:44.165Z,8.89
2017-12-24T10:18:11.793Z,8.89
2017-12-24T10:20:39.507Z,8.88
2017-12-24T10:23:07.203Z,8.88
2017-12-24T10:25:34.909Z,8.86
2017-12-24T10:28:02.522Z,8.86
2017-12-24T10:30:30.214Z,8.81
2017-12-24T10:32:57.850Z,8.79
2017-12-24T10:35:25.534Z,8.76
2017-12-24T10:37:53.210Z,8.72
2017-12-24T10:40:20.879Z,8.70
2017-12-24T10:42:48.581Z,8.69
2017-12-24T10:45:16.340Z,8.67
2017-12-24T10:47:43.973Z,8.67
2017-12-24T10:50:11.718Z,8.65
2017-12-24T10:52:39.434Z,8.68
2017-12-24T10:55:07.179Z,8.72
2017-12-24T10:57:34.847Z,8.67
2017-12-24T11:00:02.531Z,8.71
2017-12-24T11:02:30.192Z,8.67
2017-12-24T11:04:57.863Z,8.65
2017-12-24T11:07:25.572Z,8.69
2017-12-24T11:09:53.280Z,8.66
2017-12-24T11:12:20.994Z,8.61
2017-12-24T11:14:48.716Z,8.60
2017-12-24T11:17:16.399Z,8.61
2017-12-24T11:19:44.147Z,8.56
2017-12-24T11:22:11.846Z,8.54
2017-12-24T11:24:39.757Z,8.53
2017-12-24T11:27:07.465Z,8.56
2017-12-24T11:29:35.202Z,8.56
2017-12-24T11:32:02.825Z,8.57
2017-12-24T11:34:30.563Z,8.56
2017-12-24T11:36:58.257Z,8.56
2017-12-24T11:39:25.941Z,8.57
2017-12-24T11:41:53.573Z,8.54
2017-12-24T11:44:21.274Z,8.55
2017-12-24T11:46:49.019Z,8.55
2017-12-24T11:49:16.679Z,8.58
2017-12-24T11:51:44.444Z,8.57
2017-12-24T11:54:12.135Z,8.52
2017-12-24T11:56:39.859Z,8.52
2017-12-24T11:59:07.550Z,8.55
2017-12-24T12:01:35.297Z,8.58
2017-12-24T12:04:03.059Z,8.55
2017-12-24T12:06:30.788Z,8.53
2017-12-24T12:08:58.482Z,8.52
2017-12-24T12:11:26.215Z,8.51
2017-12-24T12:13:53.893Z,8.55
2017-12-24T12:16:21.628Z,8.57
2017-12-24T12:18:49.263Z,8.54
2017-12-24T12:21:17.001Z,8.58
2017-12-24T12:23:44.694Z,8.53
2017-12-24T12:26:12.445Z,8.59
2017-12-24T12:28:40.122Z,8.57
2017-12-24T12:31:07.861Z,8.55
2017-12-24T12:33:35.594Z,8.55
2017-12-24T12:36:03.285Z,8.54
2017-12-24T12:38:30.976Z,8.56
2017-12-24T12:40:58.663Z,8.62
2017-12-24T12:43:26.345Z,8.61
2017-12-24T12:45:54.027Z,8.63
2017-12-24T12:48:21.718Z,8.66
2017-12-24T12:50:49.380Z,8.63
2017-12-24T12:53:16.999Z,8.70
2017-12-24T12:55:44.667Z,8.75
2017-12-24T12:58:12.350Z,8.73
2017-12-24T13:00:40.028Z,8.73
2017-12-24T13:03:07.667Z,8.70
2017-12-24T13:05:35.401Z,8.75
2017-12-24T13:08:03.039Z,8.75
2017-12-24T13:10:30.716Z,8.71
2017-12-24T13:12:58.338Z,8.78
2017-12-24T13:15:26.017Z,8.72
2017-12-24T13:17:53.640Z,8.72
2017-12-24T13:20:21.303Z,8.65
2017-12-24T13:22:48.916Z,8.71
2017-12-24T13:25:16.556Z,8.72
2017-12-24T13:27:44.281Z,8.79
2017-12-24T13:30:11.908Z,8.71
2017-12-24T13:32:39.571Z,8.69
2017-12-24T13:35:07.258Z,8.66
2017-12-24T13:37:34.928Z,8.65
2017-12-24T13:40:02.637Z,8.68
2017-12-24T13:42:30.307Z,8.67
2017-12-24T13:44:57.924Z,8.63
2017-12-24T13:47:25.601Z,8.61
2017-12-24T13:49:53.223Z,8.59
2017-12-24T13:52:20.902Z,8.63
2017-12-24T13:54:48.535Z,8.61
2017-12-24T13:57:16.208Z,8.56
2017-12-24T13:59:43.838Z,8.56
2017-12-24T14:02:11.570Z,8.55
2017-12-24T14:04:39.194Z,8.55
2017-12-24T14:07:06.858Z,8.61
2017-12-24T14:09:34.492Z,8.62
2017-12-24T14:12:05.824Z,8.63
2017-12-24T14:14:33.445Z,8.60
2017-12-24T14:17:01.110Z,8.57
2017-12-24T14:19:28.809Z,8.57
2017-12-24T14:21:56.493Z,8.60
2017-12-24T14:24:24.130Z,8.56
2017-12-24T14:26:51.876Z,8.55
2017-12-24T14:29:19.524Z,8.58
2017-12-24T14:31:47.267Z,8.59
2017-12-24T14:34:14.966Z,8.57
2017-12-24T14:36:42.637Z,8.59
2017-12-24T14:39:10.325Z,8.55
2017-12-24T14:41:38.074Z,8.54
2017-12-24T14:44:05.760Z,8.53
2017-12-24T14:46:33.438Z,8.55
2017-12-24T14:49:01.116Z,8.60
2017-12-24T14:51:28.842Z,8.62
2017-12-24T14:53:56.510Z,8.64
2017-12-24T14:56:24.254Z,8.62
2017-12-24T14:58:52.230Z,8.63
2017-12-24T15:01:19.969Z,8.67
2017-12-24T15:03:47.709Z,8.66
2017-12-24T15:06:15.408Z,8.66
2017-12-24T15:08:43.274Z,8.64
2017-12-24T15:11:10.977Z,8.65
2017-12-24T15:13:38.744Z,8.63
2017-12-24T15:16:06.452Z,8.67
2017-12-24T15:18:34.188Z,8.72
2017-12-24T15:21:01.876Z,8.70
2017-12-24T15:23:29.607Z,8.69
2017-12-24T15:25:57.294Z,8.73
2017-12-24T15:28:25.020Z,8.71
2017-12-24T15:30:52.711Z,8.76
2017-12-24T15:33:20.455Z,8.76
2017-12-24T15:35:48.167Z,8.72
2017-12-24T15:38:15.879Z,8.76
2017-12-24T15:40:43.555Z,8.74
2017-12-24T15:43:11.241Z,8.78
2017-12-24T15:45:38.929Z,8.83
2017-12-24T15:48:06.715Z,8.79
2017-12-24T15:50:34.429Z,8.79
2017-12-24T15:53:02.164Z,8.80
2017-12-24T15:55:29.856Z,8.84
2017-12-24T15:57:57.584Z,8.84
2017-12-24T16:00:25.271Z,8.83
2017-12-24T16:02:53.069Z,8.84
2017-12-24T16:05:20.752Z,8.86
2017-12-24T16:07:48.491Z,8.87
2017-12-24T16:10:16.188Z,8.92
2017-12-24T16:12:43.924Z,8.91
2017-12-24T16:15:11.659Z,8.87
2017-12-24T16:17:39.388Z,8.88
2017-12-24T16:20:07.067Z,8.91
2017-12-24T16:22:34.800Z,8.94
2017-12-24T16:25:02.484Z,8.93
2017-12-24T16:27:30.220Z,8.95
2017-12-24T16:29:57.915Z,8.96
2017-12-24T16:32:25.607Z,8.93
2017-12-24T16:34:53.292Z,8.90
2017-12-24T16:37:21.033Z,8.91
2017-12-24T16:39:48.722Z,8.92
2017-12-24T16:42:16.455Z,8.92
2017-12-24T16:44:44.139Z,8.93
2017-12-24T16:47:11.808Z,8.92
2017-12-24T16:49:39.565Z,8.96
2017-12-24T16:52:07.252Z,8.94
2017-12-24T16:54:34.988Z,8.93
2017-12-24T16:57:02.684Z,8.99
2017-12-24T16:59:30.415Z,8.97
2017-12-24T17:01:58.125Z,8.94
2017-12-24T17:04:25.908Z,8.96
2017-12-24T17:06:53.594Z,8.99
2017-12-24T17:09:21.312Z,8.99
2017-12-24T17:11:49.001Z,9.02
2017-12-24T17:14:16.740Z,9.04
2017-12-24T17:16:44.428Z,9.07
2017-12-24T17:19:12.177Z,9.03
2017-12-24T17:21:39.865Z,9.05
2017-12-24T17:24:07.592Z,9.08
2017-12-24T17:26:35.276Z,9.08
2017-12-24T17:29:03.035Z,9.07
2017-12-24T17:31:30.729Z,9.07
2017-12-24T17:33:58.466Z,9.10
2017-12-24T17:36:26.147Z,9.09
2017-12-24T17:38:53.896Z,9.06
2017-12-24T17:41:21.568Z,9.07
2017-12-24T17:43:49.236Z,9.14
2017-12-24T17:46:16.888Z,9.10
2017-12-24T17:48:44.562Z,9.09
2017-12-24T17:51:12.198Z,9.08
2017-12-24T17:53:39.871Z,9.05
2017-12-24T17:56:07.516Z,9.04
2017-12-24T17:58:35.260Z,9.00
2017-12-24T18:01:02.981Z,8.96
2017-12-24T18:03:30.677Z,8.98
2017-12-24T18:05:58.384Z,8.94
2017-12-24T18:08:26.139Z,8.92
2017-12-24T18:10:53.828Z,8.89
2017-12-24T18:13:21.546Z,8.86
2017-12-24T18:15:49.224Z,8.88
2017-12-24T18:18:16.906Z,8.90
2017-12-24T18:20:44.600Z,8.92
2017-12-24T18:23:12.373Z,8.90
2017-12-24T18:25:40.055Z,8.89
2017-12-24T18:28:07.689Z,8.90
2017-12-24T18:30:35.431Z,8.91
2017-12-24T18:33:03.179Z,8.94
2017-12-24T18:35:30.852Z,9.01
2017-12-24T18:37:58.547Z,9.00
2017-12-24T18:40:26.269Z,9.01
2017-12-24T18:42:53.948Z,9.05
2017-12-24T18:45:21.613Z,9.04
2017-12-24T18:47:49.295Z,9.10
2017-12-24T18:50:17.035Z,9.12
2017-12-24T18:52:44.753Z,9.17
2017-12-24T18:55:12.435Z,9.14
2017-12-24T18:57:40.156Z,9.13
2017-12-24T19:00:07.834Z,9.12
2017-12-24T19:02:35.468Z,9.10
2017-12-24T19:05:03.159Z,9.08
2017-12-24T19:07:30.798Z,9.09
2017-12-24T19:09:58.471Z,9.09
2017-12-24T19:12:26.092Z,9.11
2017-12-24T19:14:53.843Z,9.13
2017-12-24T19:17:21.539Z,9.14
2017-12-24T19:19:49.299Z,9.18
2017-12-24T19:22:16.927Z,9.17
2017-12-24T19:24:44.708Z,9.19
2017-12-24T19:27:12.327Z,9.22
2017-12-24T19:29:40.075Z,9.19
2017-12-24T19:32:07.743Z,9.16
2017-12-24T19:34:35.510Z,9.15
2017-12-24T19:37:03.187Z,9.19
2017-12-24T19:39:30.904Z,9.23
2017-12-24T19:41:58.528Z,9.30
2017-12-24T19:44:26.222Z,9.30
2017-12-24T19:46:53.915Z,9.32
2017-12-24T19:49:21.623Z,9.35
2017-12-24T19:51:49.764Z,9.35
2017-12-24T19:54:17.479Z,9.35
2017-12-24T19:56:45.162Z,9.33
2017-12-24T19:59:12.862Z,9.34
2017-12-24T20:01:40.482Z,9.36
2017-12-24T20:04:08.207Z,9.44
2017-12-24T20:06:37.433Z,9.41
2017-12-24T20:09:05.122Z,9.44
2017-12-24T20:11:32.962Z,9.44
2017-12-24T20:14:00.598Z,9.43
2017-12-24T20:16:28.285Z,9.44
2017-12-24T20:18:55.979Z,9.47
2017-12-24T20:21:23.713Z,9.45
2017-12-24T20:23:51.427Z,9.44
2017-12-24T20:26:19.139Z,9.43
2017-12-24T20:28:46.896Z,9.41
2017-12-24T20:31:14.628Z,9.34
2017-12-24T20:33:42.278Z,9.32
2017-12-24T20:36:10.052Z,9.29
2017-12-24T20:38:37.757Z,9.26
2017-12-24T20:41:05.489Z,9.17
2017-12-24T20:43:33.224Z,9.13
2017-12-24T20:46:01.034Z,9.15
2017-12-24T20:48:28.725Z,9.19
2017-12-24T20:50:56.452Z,9.24
2017-12-24T20:53:24.127Z,9.27
2017-12-24T20:55:51.820Z,9.29
2017-12-24T20:58:19.554Z,9.31
2017-12-24T21:00:47.273Z,9.35
2017-12-24T21:03:15.021Z,9.36
2017-12-24T21:05:42.748Z,9.39
2017-12-24T21:08:10.422Z,9.43
2017-12-24T21:10:38.154Z,9.48
2017-12-24T21:13:05.877Z,9.49
2017-12-24T21:15:33.614Z,9.54
2017-12-24T21:18:01.317Z,9.58
2017-12-24T21:20:29.059Z,9.64
2017-12-24T21:22:56.754Z,9.66
2017-12-24T21:25:24.473Z,9.71
2017-12-24T21:27:52.243Z,9.78
2017-12-24T21:30:20.049Z,9.75
2017-12-24T21:32:47.685Z,9.75
2017-12-24T21:35:15.897Z,9.76
2017-12-24T21:37:43.576Z,9.76
2017-12-24T21:40:11.389Z,9.76
2017-12-24T21:42:39.068Z,9.73
2017-12-24T21:45:06.822Z,9.78
2017-12-24T21:47:34.533Z,9.81
2017-12-24T21:50:02.231Z,9.79
2017-12-24T21:52:30.003Z,9.77
2017-12-24T21:54:57.722Z,9.71
2017-12-24T21:57:25.521Z,9.74
2017-12-24T21:59:53.216Z,9.76
2017-12-24T22:02:20.959Z,9.77
2017-12-24T22:04:48.585Z,9.75
2017-12-24T22:07:16.316Z,9.77
2017-12-24T22:09:44.072Z,9.80
2017-12-24T22:12:11.847Z,9.80
2017-12-24T22:14:39.588Z,9.80
2017-12-24T22:17:07.318Z,9.83
2017-12-24T22:19:35.007Z,9.85
2017-12-24T22:22:02.713Z,9.83
2017-12-24T22:24:30.403Z,9.86
2017-12-24T22:26:58.131Z,9.85
2017-12-24T22:29:25.862Z,9.83
2017-12-24T22:31:53.595Z,9.85
2017-12-24T22:34:21.269Z,9.89
2017-12-24T22:36:48.980Z,9.90
2017-12-24T22:39:16.666Z,9.88
2017-12-24T22:41:44.398Z,9.92
2017-12-24T22:44:12.087Z,9.94
2017-12-24T22:46:39.905Z,9.92
2017-12-24T22:49:07.579Z,9.91
2017-12-24T22:51:35.348Z,9.96
2017-12-24T22:54:03.064Z,9.98
2017-12-24T22:56:30.791Z,9.96
2017-12-24T22:58:58.474Z,9.91
2017-12-24T23:01:26.189Z,9.89
2017-12-24T23:03:53.963Z,9.93
2017-12-24T23:06:21.682Z,9.89
2017-12-24T23:08:49.435Z,9.89
2017-12-24T23:11:18.112Z,9.86
2017-12-24T23:13:45.852Z,9.87
2017-12-24T23:16:13.560Z,9.90
2017-12-24T23:18:41.197Z,9.93
2017-12-24T23:21:08.914Z,9.90
2017-12-24T23:23:36.662Z,9.95
2017-12-24T23:26:04.406Z,9.92
2017-12-24T23:28:32.136Z,9.90
2017-12-24T23:30:59.780Z,9.93
2017-12-24T23:33:27.512Z,9.89
2017-12-24T23:35:55.246Z,9.89
2017-12-24T23:38:22.977Z,9.89
2017-12-24T23:40:50.601Z,9.88
2017-12-24T23:43:18.376Z,9.87
2017-12-24T23:45:46.121Z,9.90
2017-12-24T23:48:13.855Z,9.87
2017-12-24T23:50:41.544Z,9.85
2017-12-24T23:53:09.271Z,9.85
2017-12-24T23:55:36.894Z,9.85
2017-12-24T23:58:04.594Z,9.96
